Terminal Aerodrome Forecast
Issued by NWS

Home | Current Version | Previous Version | Text Only | Print | Product List | Glossary On
Versions: 1 2 3 4 5 6 7 8 9 10 11 12 13 14 15 16 17 18 19 20 21 22 23 24
000
FTUS41 KBTV 250253 AAA
TAFSLK
TAF AMD
KSLK 250253Z 2503/2524 00000KT 1/4SM FG VV002
     FM251300 23007KT P6SM BKN150
     FM251900 22009KT P6SM VCSH SCT025 OVC035=

USA.gov is the U.S. government's official web portal to all federal, state and local government web resources and services.